createdAt,value
2023-02-01T00:00:05.295Z,986.81
2023-02-01T00:01:05.285Z,986.88
2023-02-01T00:02:05.253Z,986.86
2023-02-01T00:03:05.250Z,986.88
2023-02-01T00:04:05.227Z,986.86
2023-02-01T00:05:05.254Z,986.88
2023-02-01T00:06:05.211Z,986.85
2023-02-01T00:07:05.215Z,986.87
2023-02-01T00:08:05.192Z,986.89
2023-02-01T00:09:05.203Z,986.88
2023-02-01T00:10:05.164Z,986.88
2023-02-01T00:11:05.208Z,986.88
2023-02-01T00:12:05.153Z,986.85
2023-02-01T00:13:05.147Z,986.84
2023-02-01T00:14:05.132Z,986.83
2023-02-01T00:15:05.156Z,986.81
2023-02-01T00:16:05.159Z,986.81
2023-02-01T00:17:05.121Z,986.80
2023-02-01T00:18:05.093Z,986.79
2023-02-01T00:19:05.095Z,986.79
2023-02-01T00:20:05.069Z,986.80
2023-02-01T00:21:05.099Z,986.79
2023-02-01T00:22:05.068Z,986.79
2023-02-01T00:23:05.048Z,986.76
2023-02-01T00:24:05.035Z,986.78
2023-02-01T00:25:05.025Z,986.79
2023-02-01T00:26:05.042Z,986.78
2023-02-01T00:27:05.011Z,986.80
2023-02-01T00:28:04.983Z,986.83
2023-02-01T00:29:05.015Z,986.81
2023-02-01T00:30:04.964Z,986.82
2023-02-01T00:31:05.130Z,986.83
2023-02-01T00:32:05.067Z,986.82
2023-02-01T00:33:04.956Z,986.78
2023-02-01T00:34:04.933Z,986.75
2023-02-01T00:35:04.935Z,986.76
2023-02-01T00:36:04.902Z,986.79
2023-02-01T00:37:04.904Z,986.76
2023-02-01T00:38:04.910Z,986.73
2023-02-01T00:39:04.895Z,986.80
2023-02-01T00:40:04.875Z,986.80
2023-02-01T00:41:04.877Z,986.83
2023-02-01T00:42:04.849Z,986.83
2023-02-01T00:43:04.847Z,986.79
2023-02-01T00:44:04.824Z,986.81
2023-02-01T00:45:04.843Z,986.79
2023-02-01T00:46:04.813Z,986.79
2023-02-01T00:47:04.814Z,986.82
2023-02-01T00:48:04.786Z,986.84
2023-02-01T00:49:04.795Z,986.82
2023-02-01T00:50:04.760Z,986.84
2023-02-01T00:51:04.776Z,986.83
2023-02-01T00:52:04.736Z,986.81
2023-02-01T00:53:04.750Z,986.81
2023-02-01T00:54:04.724Z,986.82
2023-02-01T00:55:04.754Z,986.78
2023-02-01T00:56:04.724Z,986.75
2023-02-01T00:57:04.727Z,986.75
2023-02-01T00:58:04.694Z,986.74
2023-02-01T00:59:04.732Z,986.74
2023-02-01T01:00:04.724Z,986.75
2023-02-01T01:01:04.751Z,986.74
2023-02-01T01:02:04.721Z,986.73
2023-02-01T01:03:04.640Z,986.71
2023-02-01T01:04:04.628Z,986.73
2023-02-01T01:05:04.645Z,986.73
2023-02-01T01:06:04.626Z,986.74
2023-02-01T01:07:04.610Z,986.73
2023-02-01T01:08:04.581Z,986.73
2023-02-01T01:09:04.598Z,986.75
2023-02-01T01:10:04.561Z,986.71
2023-02-01T01:11:04.592Z,986.68
2023-02-01T01:12:04.542Z,986.70
2023-02-01T01:13:04.548Z,986.69
2023-02-01T01:14:04.529Z,986.70
2023-02-01T01:15:04.534Z,986.72
2023-02-01T01:16:04.531Z,986.74
2023-02-01T01:17:04.544Z,986.77
2023-02-01T01:18:04.493Z,986.74
2023-02-01T01:19:04.498Z,986.73
2023-02-01T01:20:04.458Z,986.74
2023-02-01T01:21:04.466Z,986.71
2023-02-01T01:22:04.482Z,986.74
2023-02-01T01:23:04.471Z,986.70
2023-02-01T01:24:04.447Z,986.71
2023-02-01T01:25:04.442Z,986.66
2023-02-01T01:26:05.151Z,986.68
2023-02-01T01:27:04.441Z,986.69
2023-02-01T01:28:04.398Z,986.64
2023-02-01T01:29:04.394Z,986.68
2023-02-01T01:30:04.366Z,986.69
2023-02-01T01:31:04.524Z,986.64
2023-02-01T01:32:04.353Z,986.67
2023-02-01T01:33:04.367Z,986.71
2023-02-01T01:34:04.325Z,986.66
2023-02-01T01:35:04.328Z,986.73
2023-02-01T01:36:04.310Z,986.67
2023-02-01T01:37:04.325Z,986.73
2023-02-01T01:38:04.288Z,986.74
2023-02-01T01:39:04.313Z,986.73
2023-02-01T01:40:04.268Z,986.71
2023-02-01T01:41:04.271Z,986.68
2023-02-01T01:42:04.245Z,986.65
2023-02-01T01:43:04.264Z,986.61
2023-02-01T01:44:04.241Z,986.55
2023-02-01T01:45:04.223Z,986.49
2023-02-01T01:46:04.204Z,986.50
2023-02-01T01:47:04.219Z,986.49
2023-02-01T01:48:04.219Z,986.47
2023-02-01T01:49:04.220Z,986.47
2023-02-01T01:50:04.172Z,986.42
2023-02-01T01:51:04.187Z,986.35
2023-02-01T01:52:04.154Z,986.33
2023-02-01T01:53:04.158Z,986.37
2023-02-01T01:54:04.126Z,986.39
2023-02-01T01:55:04.146Z,986.38
2023-02-01T01:56:04.111Z,986.33
2023-02-01T01:57:04.106Z,986.30
2023-02-01T01:58:04.095Z,986.28
2023-02-01T01:59:04.096Z,986.25
2023-02-01T02:00:04.087Z,986.25
2023-02-01T02:01:04.122Z,986.27
2023-02-01T02:02:04.125Z,986.23
2023-02-01T02:03:04.053Z,986.22
2023-02-01T02:04:04.041Z,986.21
2023-02-01T02:05:04.031Z,986.22
2023-02-01T02:06:04.029Z,986.20
2023-02-01T02:07:04.040Z,986.21
2023-02-01T02:08:03.993Z,986.21
2023-02-01T02:09:06.846Z,986.17
2023-02-01T02:10:03.965Z,986.19
2023-02-01T02:11:04.006Z,986.23
2023-02-01T02:12:03.942Z,986.19
2023-02-01T02:13:04.192Z,986.21
2023-02-01T02:14:03.931Z,986.14
2023-02-01T02:15:03.926Z,986.16
2023-02-01T02:16:04.060Z,986.19
2023-02-01T02:17:03.939Z,986.15
2023-02-01T02:18:03.886Z,986.14
2023-02-01T02:19:03.911Z,986.12
2023-02-01T02:20:03.864Z,986.17
2023-02-01T02:21:03.875Z,986.23
2023-02-01T02:22:03.841Z,986.24
2023-02-01T02:23:03.854Z,986.25
2023-02-01T02:24:03.849Z,986.26
2023-02-01T02:25:03.855Z,986.28
2023-02-01T02:26:03.804Z,986.27
2023-02-01T02:27:03.806Z,986.28
2023-02-01T02:28:03.798Z,986.31
2023-02-01T02:29:03.788Z,986.26
2023-02-01T02:30:03.783Z,986.27
2023-02-01T02:31:03.839Z,986.23
2023-02-01T02:32:03.768Z,986.19
2023-02-01T02:33:03.757Z,986.25
2023-02-01T02:34:03.763Z,986.16
2023-02-01T02:35:03.753Z,986.04
2023-02-01T02:36:03.708Z,986.08
2023-02-01T02:37:03.714Z,986.06
2023-02-01T02:38:03.795Z,985.99
2023-02-01T02:39:03.762Z,985.94
2023-02-01T02:40:03.672Z,985.91
2023-02-01T02:41:03.688Z,985.84
2023-02-01T02:42:03.644Z,985.83
2023-02-01T02:43:03.648Z,985.82
2023-02-01T02:44:03.639Z,985.81
2023-02-01T02:45:03.645Z,985.85
2023-02-01T02:46:03.698Z,985.85
2023-02-01T02:47:03.617Z,985.90
2023-02-01T02:48:03.585Z,985.84
2023-02-01T02:49:03.595Z,985.84
2023-02-01T02:50:03.561Z,985.87
2023-02-01T02:51:03.570Z,985.81
2023-02-01T02:52:03.566Z,985.82
2023-02-01T02:53:03.550Z,985.82
2023-02-01T02:54:03.540Z,985.84
2023-02-01T02:55:03.564Z,985.79
2023-02-01T02:56:03.520Z,985.85
2023-02-01T02:57:03.571Z,985.89
2023-02-01T02:58:03.519Z,985.91
2023-02-01T02:59:03.502Z,985.88
2023-02-01T03:00:03.474Z,985.89
2023-02-01T03:01:03.499Z,985.87
2023-02-01T03:02:03.464Z,985.85
2023-02-01T03:03:03.428Z,985.85
2023-02-01T03:04:03.489Z,985.87
2023-02-01T03:05:03.434Z,985.75
2023-02-01T03:06:03.434Z,985.84
2023-02-01T03:07:03.387Z,985.81
2023-02-01T03:08:03.420Z,985.81
2023-02-01T03:09:03.365Z,985.78
2023-02-01T03:10:03.388Z,985.83
2023-02-01T03:11:03.362Z,985.79
2023-02-01T03:12:03.358Z,985.77
2023-02-01T03:13:03.329Z,985.82
2023-02-01T03:14:03.343Z,985.82
2023-02-01T03:15:03.319Z,985.79
2023-02-01T03:16:03.341Z,985.80
2023-02-01T03:17:03.285Z,985.83
2023-02-01T03:18:03.292Z,985.82
2023-02-01T03:19:03.275Z,985.78
2023-02-01T03:20:03.311Z,985.73
2023-02-01T03:21:03.244Z,985.71
2023-02-01T03:22:03.294Z,985.68
2023-02-01T03:23:03.228Z,985.69
2023-02-01T03:24:03.248Z,985.63
2023-02-01T03:25:03.215Z,985.61
2023-02-01T03:26:03.322Z,985.62
2023-02-01T03:27:03.185Z,985.59
2023-02-01T03:28:03.227Z,985.54
2023-02-01T03:29:03.194Z,985.48
2023-02-01T03:30:03.168Z,985.54
2023-02-01T03:31:03.221Z,985.49
2023-02-01T03:32:03.210Z,985.46
2023-02-01T03:33:03.158Z,985.44
2023-02-01T03:34:03.139Z,985.52
2023-02-01T03:35:03.112Z,985.53
2023-02-01T03:36:03.112Z,985.51
2023-02-01T03:37:03.083Z,985.53
2023-02-01T03:38:03.087Z,985.47
2023-02-01T03:39:03.091Z,985.51
2023-02-01T03:40:03.078Z,985.46
2023-02-01T03:41:03.059Z,985.43
2023-02-01T03:42:03.049Z,985.39
2023-02-01T03:43:03.017Z,985.43
2023-02-01T03:44:03.029Z,985.44
2023-02-01T03:45:03.027Z,985.45
2023-02-01T03:46:03.059Z,985.45
2023-02-01T03:47:02.988Z,985.45
2023-02-01T03:48:02.996Z,985.49
2023-02-01T03:49:02.963Z,985.45
2023-02-01T03:50:02.971Z,985.48
2023-02-01T03:51:02.969Z,985.51
2023-02-01T03:52:03.017Z,985.44
2023-02-01T03:53:02.926Z,985.38
2023-02-01T03:54:02.927Z,985.38
2023-02-01T03:55:02.898Z,985.43
2023-02-01T03:56:02.925Z,985.42
2023-02-01T03:57:02.902Z,985.37
2023-02-01T03:58:03.011Z,985.30
2023-02-01T03:59:02.866Z,985.28
2023-02-01T04:00:02.864Z,985.21
2023-02-01T04:01:02.900Z,985.26
2023-02-01T04:02:02.912Z,985.29
2023-02-01T04:03:02.840Z,985.31
2023-02-01T04:04:02.833Z,985.33
2023-02-01T04:05:02.808Z,985.37
2023-02-01T04:06:02.805Z,985.37
2023-02-01T04:07:02.787Z,985.32
2023-02-01T04:08:02.789Z,985.27
2023-02-01T04:09:02.777Z,985.27
2023-02-01T04:10:02.757Z,985.21
2023-02-01T04:11:02.768Z,985.20
2023-02-01T04:12:02.743Z,985.16
2023-02-01T04:13:02.725Z,985.13
2023-02-01T04:14:02.726Z,985.13
2023-02-01T04:15:02.695Z,985.18
2023-02-01T04:16:02.698Z,985.22
2023-02-01T04:17:02.709Z,985.19
2023-02-01T04:18:02.685Z,985.21
2023-02-01T04:19:02.657Z,985.25
2023-02-01T04:20:02.675Z,985.17
2023-02-01T04:21:02.632Z,985.15
2023-02-01T04:22:02.648Z,985.15
2023-02-01T04:23:02.640Z,985.15
2023-02-01T04:24:02.626Z,985.18
2023-02-01T04:25:02.597Z,985.16
2023-02-01T04:26:02.627Z,985.08
2023-02-01T04:27:02.581Z,985.16
2023-02-01T04:28:02.634Z,985.02
2023-02-01T04:29:02.581Z,985.18
2023-02-01T04:30:02.567Z,985.15
2023-02-01T04:31:02.669Z,985.10
2023-02-01T04:32:02.553Z,985.02
2023-02-01T04:33:02.537Z,985.13
2023-02-01T04:34:02.530Z,985.08
2023-02-01T04:35:02.607Z,985.08
2023-02-01T04:36:02.501Z,985.05
2023-02-01T04:37:02.471Z,985.03
2023-02-01T04:38:02.481Z,985.04
2023-02-01T04:39:02.473Z,985.06
2023-02-01T04:40:02.466Z,984.98
2023-02-01T04:41:02.473Z,984.99
2023-02-01T04:42:02.435Z,985.00
2023-02-01T04:43:02.418Z,984.91
2023-02-01T04:44:02.417Z,984.96
2023-02-01T04:45:02.577Z,984.93
2023-02-01T04:46:02.463Z,984.90
2023-02-01T04:47:02.402Z,984.90
2023-02-01T04:48:02.374Z,984.86
2023-02-01T04:49:02.353Z,984.95
2023-02-01T04:50:02.380Z,984.88
2023-02-01T04:51:02.360Z,984.85
2023-02-01T04:52:02.347Z,984.91
2023-02-01T04:53:02.346Z,984.91
2023-02-01T04:54:02.313Z,984.96
2023-02-01T04:55:02.299Z,984.93
2023-02-01T04:56:02.334Z,984.96
2023-02-01T04:57:02.305Z,984.95
2023-02-01T04:58:02.300Z,984.96
2023-02-01T04:59:02.265Z,984.94
2023-02-01T05:00:02.274Z,984.96
2023-02-01T05:01:02.291Z,985.02
2023-02-01T05:02:02.289Z,984.99
2023-02-01T05:03:02.211Z,985.05
2023-02-01T05:04:02.224Z,984.93
2023-02-01T05:05:02.282Z,985.13
2023-02-01T05:06:02.210Z,984.96
2023-02-01T05:07:02.183Z,984.99
2023-02-01T05:08:02.209Z,985.03
2023-02-01T05:09:02.264Z,984.98
2023-02-01T05:10:02.158Z,984.99
2023-02-01T05:11:02.139Z,985.02
2023-02-01T05:12:02.140Z,984.99
2023-02-01T05:13:02.111Z,984.97
2023-02-01T05:14:02.666Z,984.97
2023-02-01T05:15:02.098Z,985.02
2023-02-01T05:16:02.159Z,985.05
2023-02-01T05:17:02.073Z,985.00
2023-02-01T05:18:02.092Z,984.96
2023-02-01T05:19:02.078Z,984.93
2023-02-01T05:20:02.068Z,984.91
2023-02-01T05:21:02.060Z,984.96
2023-02-01T05:22:02.043Z,984.90
2023-02-01T05:23:02.024Z,984.90
2023-02-01T05:24:02.010Z,984.86
2023-02-01T05:25:02.025Z,984.75
2023-02-01T05:26:02.000Z,984.71
2023-02-01T05:27:01.978Z,984.64
2023-02-01T05:28:01.978Z,984.63
2023-02-01T05:29:01.949Z,984.63
2023-02-01T05:30:01.972Z,984.73
2023-02-01T05:31:02.029Z,984.65
2023-02-01T05:32:19.393Z,984.63
2023-02-01T05:33:01.916Z,984.64
2023-02-01T05:34:01.912Z,984.61
2023-02-01T05:35:01.891Z,984.64
2023-02-01T05:36:01.890Z,984.57
2023-02-01T05:37:01.891Z,984.62
2023-02-01T05:38:01.877Z,984.61
2023-02-01T05:39:01.850Z,984.64
2023-02-01T05:40:01.879Z,984.61
2023-02-01T05:41:01.832Z,984.54
2023-02-01T05:42:01.838Z,984.60
2023-02-01T05:43:01.835Z,984.61
2023-02-01T05:44:01.818Z,984.63
2023-02-01T05:45:01.794Z,984.57
2023-02-01T05:46:01.806Z,984.59
2023-02-01T05:47:01.769Z,984.62
2023-02-01T05:48:01.774Z,984.58
2023-02-01T05:49:01.767Z,984.53
2023-02-01T05:50:01.782Z,984.62
2023-02-01T05:51:01.726Z,984.61
2023-02-01T05:52:01.761Z,984.64
2023-02-01T05:53:01.705Z,984.62
2023-02-01T05:54:01.741Z,984.65
2023-02-01T05:55:01.693Z,984.69
2023-02-01T05:56:01.721Z,984.68
2023-02-01T05:57:01.667Z,984.64
2023-02-01T05:58:01.681Z,984.64
2023-02-01T05:59:06.076Z,984.72
2023-02-01T06:00:01.635Z,984.54
2023-02-01T06:01:01.651Z,984.66
2023-02-01T06:02:01.634Z,984.59
2023-02-01T06:03:01.718Z,984.58
2023-02-01T06:04:01.670Z,984.54
2023-02-01T06:05:01.603Z,984.57
2023-02-01T06:06:01.573Z,984.62
2023-02-01T06:07:01.600Z,984.67
2023-02-01T06:08:01.590Z,984.59
2023-02-01T06:09:01.592Z,984.56
2023-02-01T06:10:01.542Z,984.57
2023-02-01T06:11:01.567Z,984.53
2023-02-01T06:12:01.534Z,984.49
2023-02-01T06:13:01.562Z,984.53
2023-02-01T06:14:01.498Z,984.53
2023-02-01T06:15:01.562Z,984.54
2023-02-01T06:16:01.563Z,984.60
2023-02-01T06:17:01.528Z,984.58
2023-02-01T06:18:01.458Z,984.61
2023-02-01T06:19:01.476Z,984.79
2023-02-01T06:20:01.469Z,984.71
2023-02-01T06:21:01.487Z,984.73
2023-02-01T06:22:01.475Z,984.69
2023-02-01T06:23:01.423Z,984.71
2023-02-01T06:24:01.396Z,984.78
2023-02-01T06:25:01.397Z,984.74
2023-02-01T06:26:01.381Z,984.78
2023-02-01T06:27:01.409Z,984.74
2023-02-01T06:28:01.355Z,984.80
2023-02-01T06:29:01.366Z,984.76
2023-02-01T06:30:01.335Z,984.91
2023-02-01T06:31:01.465Z,984.76
2023-02-01T06:32:01.383Z,984.74
2023-02-01T06:33:01.343Z,984.75
2023-02-01T06:34:01.291Z,984.72
2023-02-01T06:35:01.303Z,984.66
2023-02-01T06:36:01.275Z,984.64
2023-02-01T06:37:01.280Z,984.50
2023-02-01T06:38:01.254Z,984.48
2023-02-01T06:39:01.295Z,984.60
2023-02-01T06:40:01.261Z,984.59
2023-02-01T06:41:01.239Z,984.67
2023-02-01T06:42:01.208Z,984.58
2023-02-01T06:43:01.223Z,984.65
2023-02-01T06:44:01.196Z,984.65
2023-02-01T06:45:01.219Z,984.68
2023-02-01T06:46:01.188Z,984.55
2023-02-01T06:47:01.229Z,984.59
2023-02-01T06:48:01.152Z,984.59
2023-02-01T06:49:01.159Z,984.64
2023-02-01T06:50:01.144Z,984.62
2023-02-01T06:51:01.173Z,984.65
2023-02-01T06:52:01.164Z,984.66
2023-02-01T06:53:01.121Z,984.70
2023-02-01T06:54:01.165Z,984.62
2023-02-01T06:55:01.127Z,984.70
2023-02-01T06:56:01.080Z,984.59
2023-02-01T06:57:01.080Z,984.65
2023-02-01T06:58:01.059Z,984.62
2023-02-01T06:59:01.050Z,984.59
2023-02-01T07:00:01.048Z,984.63
2023-02-01T07:01:01.155Z,984.66
2023-02-01T07:02:01.106Z,984.66
2023-02-01T07:03:01.041Z,984.71
2023-02-01T07:04:00.992Z,984.75
2023-02-01T07:05:01.000Z,984.78
2023-02-01T07:06:00.971Z,984.79
2023-02-01T07:07:00.999Z,984.83
2023-02-01T07:08:00.947Z,984.86
2023-02-01T07:09:00.981Z,984.90
2023-02-01T07:10:00.954Z,984.84
2023-02-01T07:11:00.947Z,984.90
2023-02-01T07:12:00.954Z,984.71
2023-02-01T07:13:00.932Z,984.79
2023-02-01T07:14:00.916Z,984.81
2023-02-01T07:15:00.874Z,984.75
2023-02-01T07:16:00.951Z,984.78
2023-02-01T07:17:00.859Z,984.78
2023-02-01T07:18:00.861Z,984.72
2023-02-01T07:19:00.867Z,984.80
2023-02-01T07:20:00.845Z,984.73
2023-02-01T07:21:00.821Z,984.74
2023-02-01T07:22:00.833Z,984.64
2023-02-01T07:23:00.806Z,984.81
2023-02-01T07:24:00.805Z,984.84
2023-02-01T07:25:00.792Z,984.84
2023-02-01T07:26:00.799Z,984.89
2023-02-01T07:27:00.758Z,984.71
2023-02-01T07:28:00.767Z,984.90
2023-02-01T07:29:00.796Z,984.92
2023-02-01T07:30:00.738Z,984.99
2023-02-01T07:31:00.762Z,984.96
2023-02-01T07:32:00.720Z,985.04
2023-02-01T07:33:00.735Z,984.99
2023-02-01T07:34:00.697Z,985.04
2023-02-01T07:35:00.677Z,985.06
2023-02-01T07:36:00.680Z,985.22
2023-02-01T07:37:00.665Z,985.16
2023-02-01T07:38:00.654Z,985.13
2023-02-01T07:39:00.655Z,985.16
2023-02-01T07:40:00.654Z,985.17
2023-02-01T07:41:00.633Z,985.19
2023-02-01T07:42:00.635Z,985.26
2023-02-01T07:43:00.597Z,985.24
2023-02-01T07:44:00.630Z,985.35
2023-02-01T07:45:14.744Z,985.29
2023-02-01T07:46:00.643Z,985.37
2023-02-01T07:47:00.549Z,985.23
2023-02-01T07:48:00.559Z,985.19
2023-02-01T07:49:00.557Z,985.28
2023-02-01T07:50:00.546Z,985.31
2023-02-01T07:51:00.519Z,985.24
2023-02-01T07:52:00.527Z,985.27
2023-02-01T07:53:00.504Z,985.26
2023-02-01T07:54:00.510Z,985.22
2023-02-01T07:55:00.492Z,985.21
2023-02-01T07:56:00.493Z,985.21
2023-02-01T07:57:00.451Z,985.21
2023-02-01T07:58:00.463Z,985.20
2023-02-01T07:59:00.438Z,985.29
2023-02-01T08:00:00.439Z,985.30
2023-02-01T08:01:00.508Z,985.33
2023-02-01T08:02:00.444Z,985.39
2023-02-01T08:03:00.388Z,985.37
2023-02-01T08:04:00.407Z,985.49
2023-02-01T08:05:00.367Z,985.41
2023-02-01T08:06:00.404Z,985.45
2023-02-01T08:07:00.340Z,985.45
2023-02-01T08:08:00.354Z,985.49
2023-02-01T08:09:00.340Z,985.53
2023-02-01T08:10:00.336Z,985.59
2023-02-01T08:11:00.321Z,985.57
2023-02-01T08:12:00.328Z,985.58
2023-02-01T08:13:00.284Z,985.58
2023-02-01T08:14:00.290Z,985.51
2023-02-01T08:15:00.262Z,985.53
2023-02-01T08:16:00.297Z,985.55
2023-02-01T08:17:00.247Z,985.59
2023-02-01T08:18:00.274Z,985.61
2023-02-01T08:19:00.229Z,985.65
2023-02-01T08:20:00.230Z,985.62
2023-02-01T08:21:00.209Z,985.71
2023-02-01T08:22:00.208Z,985.75
2023-02-01T08:23:00.202Z,985.75
2023-02-01T08:24:00.203Z,985.73
2023-02-01T08:25:00.157Z,985.78
2023-02-01T08:26:00.173Z,985.76
2023-02-01T08:27:00.142Z,985.77
2023-02-01T08:28:00.144Z,985.84
2023-02-01T08:29:00.121Z,985.86
2023-02-01T08:30:00.258Z,985.84
2023-02-01T08:31:00.223Z,985.86
2023-02-01T08:32:00.278Z,985.85
2023-02-01T08:33:00.102Z,985.78
2023-02-01T08:34:00.149Z,985.83
2023-02-01T08:35:00.065Z,985.89
2023-02-01T08:36:00.108Z,985.86
2023-02-01T08:37:00.040Z,985.83
2023-02-01T08:38:00.121Z,985.77
2023-02-01T08:39:00.015Z,985.83
2023-02-01T08:40:00.040Z,985.82
2023-02-01T08:41:00.001Z,985.91
2023-02-01T08:42:00.027Z,985.90
2023-02-01T08:42:59.974Z,985.92
2023-02-01T08:43:59.977Z,985.92
2023-02-01T08:44:59.955Z,985.90
2023-02-01T08:45:59.977Z,985.87
2023-02-01T08:46:59.933Z,985.91
2023-02-01T08:47:59.993Z,985.88
2023-02-01T08:48:59.918Z,985.81
2023-02-01T08:49:59.929Z,985.89
2023-02-01T08:50:59.900Z,985.91
2023-02-01T08:52:03.995Z,985.92
2023-02-01T08:52:59.904Z,985.95
2023-02-01T08:53:59.921Z,985.91
2023-02-01T08:54:59.877Z,985.95
2023-02-01T08:55:59.861Z,985.94
2023-02-01T08:56:59.925Z,985.95
2023-02-01T08:57:59.852Z,985.98
2023-02-01T08:58:59.838Z,985.98
2023-02-01T08:59:59.824Z,985.97
2023-02-01T09:00:59.813Z,986.02
2023-02-01T09:01:59.825Z,986.04
2023-02-01T09:02:59.779Z,985.97
2023-02-01T09:03:59.887Z,985.98
2023-02-01T09:04:59.763Z,985.97
2023-02-01T09:05:59.784Z,986.00
2023-02-01T09:06:59.748Z,985.96
2023-02-01T09:07:59.742Z,985.96
2023-02-01T09:08:59.717Z,985.93
2023-02-01T09:09:59.746Z,986.00
2023-02-01T09:11:02.146Z,986.02
2023-02-01T09:11:59.717Z,986.03
2023-02-01T09:12:59.699Z,986.02
2023-02-01T09:13:59.683Z,986.02
2023-02-01T09:14:59.756Z,986.03
2023-02-01T09:15:59.778Z,986.04
2023-02-01T09:16:59.660Z,986.02
2023-02-01T09:17:59.679Z,986.01
2023-02-01T09:19:22.101Z,986.06
2023-02-01T09:19:59.641Z,986.10
2023-02-01T09:20:59.632Z,986.07
2023-02-01T09:21:59.597Z,986.08
2023-02-01T09:22:59.600Z,986.07
2023-02-01T09:23:59.587Z,986.06
2023-02-01T09:24:59.569Z,986.01
2023-02-01T09:25:59.562Z,985.96
2023-02-01T09:26:59.595Z,986.01
2023-02-01T09:27:59.542Z,986.02
2023-02-01T09:28:59.514Z,986.00
2023-02-01T09:29:59.523Z,986.00
2023-02-01T09:30:59.610Z,985.97
2023-02-01T09:32:04.049Z,986.04
2023-02-01T09:32:59.631Z,986.02
2023-02-01T09:33:59.495Z,986.04
2023-02-01T09:34:59.458Z,986.02
2023-02-01T09:35:59.457Z,986.07
2023-02-01T09:36:59.452Z,986.01
2023-02-01T09:37:59.478Z,986.07
2023-02-01T09:38:59.440Z,986.04
2023-02-01T09:39:59.461Z,986.04
2023-02-01T09:40:59.440Z,986.01
2023-02-01T09:41:59.411Z,986.01
2023-02-01T09:42:59.394Z,986.00
2023-02-01T09:43:59.383Z,985.95
2023-02-01T09:44:59.401Z,985.94
2023-02-01T09:45:59.383Z,985.93
2023-02-01T09:46:59.376Z,985.95
2023-02-01T09:47:59.350Z,985.90
2023-02-01T09:48:59.332Z,985.91
2023-02-01T09:49:59.410Z,985.96
2023-02-01T09:50:59.454Z,986.00
2023-02-01T09:51:59.356Z,985.94
2023-02-01T09:52:59.296Z,985.91
2023-02-01T09:53:59.295Z,985.98
2023-02-01T09:54:59.253Z,985.96
2023-02-01T09:55:59.284Z,985.93
2023-02-01T09:56:59.253Z,985.91
2023-02-01T09:57:59.251Z,985.95
2023-02-01T09:58:59.273Z,985.93
2023-02-01T09:59:59.404Z,985.93
2023-02-01T10:00:59.237Z,985.88
2023-02-01T10:01:59.201Z,985.84
2023-02-01T10:02:59.186Z,985.89
2023-02-01T10:03:59.177Z,985.83
2023-02-01T10:04:59.161Z,985.84
2023-02-01T10:05:59.161Z,985.84
2023-02-01T10:06:59.169Z,985.85
2023-02-01T10:07:59.172Z,985.90
2023-02-01T10:08:59.125Z,985.88
2023-02-01T10:09:59.133Z,985.86
2023-02-01T10:10:59.771Z,985.77
2023-02-01T10:11:59.117Z,985.82
2023-02-01T10:12:59.119Z,985.79
2023-02-01T10:13:59.113Z,985.84
2023-02-01T10:14:59.075Z,985.79
2023-02-01T10:15:59.204Z,985.75
2023-02-01T10:16:59.158Z,985.81
2023-02-01T10:17:59.110Z,985.79
2023-02-01T10:18:59.020Z,985.74
2023-02-01T10:19:59.061Z,985.74
2023-02-01T10:20:59.063Z,985.72
2023-02-01T10:21:59.162Z,985.72
2023-02-01T10:23:23.083Z,985.69
2023-02-01T10:24:03.446Z,985.68
2023-02-01T10:24:58.961Z,985.76
2023-02-01T10:25:58.998Z,985.58
2023-02-01T10:26:59.009Z,985.69
2023-02-01T10:27:58.939Z,985.66
2023-02-01T10:28:58.954Z,985.65
2023-02-01T10:29:58.958Z,985.68
2023-02-01T10:30:59.069Z,985.66
2023-02-01T10:31:59.006Z,985.65
2023-02-01T10:32:58.969Z,985.63
2023-02-01T10:33:58.899Z,985.69
2023-02-01T10:34:58.869Z,985.65
2023-02-01T10:35:58.857Z,985.64
2023-02-01T10:36:58.838Z,985.61
2023-02-01T10:37:58.862Z,985.62
2023-02-01T10:38:58.819Z,985.56
2023-02-01T10:39:58.883Z,985.60
2023-02-01T10:40:58.787Z,985.58
2023-02-01T10:41:58.797Z,985.64
2023-02-01T10:42:58.769Z,985.69
2023-02-01T10:43:58.808Z,985.50
2023-02-01T10:44:58.817Z,985.62
2023-02-01T10:45:58.803Z,985.61
2023-02-01T10:46:58.753Z,985.61
2023-02-01T10:47:58.743Z,985.61
2023-02-01T10:48:58.900Z,985.57
2023-02-01T10:49:58.738Z,985.57
2023-02-01T10:50:58.751Z,985.54
2023-02-01T10:51:58.701Z,985.51
2023-02-01T10:52:58.759Z,985.57
2023-02-01T10:53:58.766Z,985.55
2023-02-01T10:54:58.684Z,985.54
2023-02-01T10:55:58.674Z,985.48
2023-02-01T10:57:00.476Z,985.53
2023-02-01T10:57:58.640Z,985.55
2023-02-01T10:58:58.648Z,985.48
2023-02-01T10:59:58.671Z,985.48
2023-02-01T11:00:58.648Z,985.47
2023-02-01T11:01:59.717Z,985.45
2023-02-01T11:02:58.655Z,985.48
2023-02-01T11:03:58.656Z,985.48
2023-02-01T11:04:58.570Z,985.41
2023-02-01T11:05:58.580Z,985.42
2023-02-01T11:06:58.536Z,985.43
2023-02-01T11:07:58.533Z,985.39
2023-02-01T11:08:58.524Z,985.39
2023-02-01T11:09:58.542Z,985.41
2023-02-01T11:10:58.506Z,985.35
2023-02-01T11:11:58.509Z,985.32
2023-02-01T11:12:58.471Z,985.22
2023-02-01T11:13:58.491Z,985.18
2023-02-01T11:14:58.452Z,985.24
2023-02-01T11:15:58.531Z,985.16
2023-02-01T11:16:58.468Z,985.20
2023-02-01T11:17:58.451Z,985.20
2023-02-01T11:18:58.429Z,985.25
2023-02-01T11:19:58.414Z,985.22
2023-02-01T11:20:58.414Z,985.18
2023-02-01T11:21:58.401Z,985.24
2023-02-01T11:22:58.374Z,985.05
2023-02-01T11:23:58.390Z,985.24
2023-02-01T11:24:58.367Z,985.23
2023-02-01T11:25:58.343Z,985.15
2023-02-01T11:26:58.414Z,985.20
2023-02-01T11:27:58.331Z,985.19
2023-02-01T11:28:58.351Z,985.23
2023-02-01T11:29:58.302Z,985.19
2023-02-01T11:30:58.452Z,985.20
2023-02-01T11:31:58.291Z,985.26
2023-02-01T11:32:58.317Z,985.23
2023-02-01T11:33:58.266Z,985.20
2023-02-01T11:34:58.309Z,985.20
2023-02-01T11:35:58.243Z,985.26
2023-02-01T11:36:58.252Z,985.27
2023-02-01T11:37:58.220Z,985.30
2023-02-01T11:38:58.232Z,985.22
2023-02-01T11:39:58.299Z,985.32
2023-02-01T11:40:58.237Z,985.31
2023-02-01T11:41:58.211Z,985.36
2023-02-01T11:42:58.215Z,985.35
2023-02-01T11:43:58.160Z,985.42
2023-02-01T11:44:58.172Z,985.39
2023-02-01T11:45:58.144Z,985.43
2023-02-01T11:46:58.151Z,985.37
2023-02-01T11:47:58.126Z,985.37
2023-02-01T11:48:58.147Z,985.46
2023-02-01T11:49:58.217Z,985.42
2023-02-01T11:50:58.131Z,985.30
2023-02-01T11:51:58.100Z,985.35
2023-02-01T11:52:58.209Z,985.34
2023-02-01T11:53:58.136Z,985.31
2023-02-01T11:54:58.099Z,985.18
2023-02-01T11:55:58.073Z,985.30
2023-02-01T11:56:58.054Z,985.25
2023-02-01T11:57:58.048Z,985.21
2023-02-01T11:58:58.040Z,985.20
2023-02-01T11:59:58.007Z,985.29
2023-02-01T12:00:58.003Z,985.20
2023-02-01T12:01:58.147Z,985.20
2023-02-01T12:02:58.074Z,985.20
2023-02-01T12:03:57.987Z,985.13
2023-02-01T12:04:57.968Z,985.16
2023-02-01T12:05:58.127Z,985.17
2023-02-01T12:06:57.951Z,985.11
2023-02-01T12:07:57.919Z,985.12
2023-02-01T12:08:57.926Z,985.10
2023-02-01T12:09:57.939Z,985.13
2023-02-01T12:10:57.902Z,985.11
2023-02-01T12:11:57.926Z,985.08
2023-02-01T12:12:57.882Z,985.15
2023-02-01T12:13:57.856Z,985.02
2023-02-01T12:14:57.881Z,985.06
2023-02-01T12:15:57.838Z,985.04
2023-02-01T12:16:57.859Z,985.00
2023-02-01T12:17:57.818Z,984.97
2023-02-01T12:18:57.822Z,985.08
2023-02-01T12:19:57.801Z,984.99
2023-02-01T12:20:57.892Z,984.95
2023-02-01T12:21:57.777Z,984.98
2023-02-01T12:22:57.779Z,984.98
2023-02-01T12:23:57.783Z,984.91
2023-02-01T12:24:57.785Z,985.01
2023-02-01T12:25:57.822Z,984.98
2023-02-01T12:26:57.789Z,985.03
2023-02-01T12:27:57.716Z,984.99